createdAt,value
2022-09-02T00:02:10.456Z,17.97
2022-09-02T00:04:39.113Z,14.77
2022-09-02T00:07:06.979Z,14.23
2022-09-02T00:09:35.185Z,18.10
2022-09-02T00:12:04.790Z,18.07
2022-09-02T00:14:38.200Z,15.20
2022-09-02T00:17:06.130Z,15.67
2022-09-02T00:19:35.825Z,19.47
2022-09-02T00:22:04.049Z,16.43
2022-09-02T00:24:32.599Z,17.70
2022-09-02T00:27:00.399Z,18.60
2022-09-02T00:29:29.198Z,17.00
2022-09-02T00:31:57.907Z,20.40
2022-09-02T00:34:26.574Z,15.67
2022-09-02T00:36:56.061Z,21.83
2022-09-02T00:39:24.179Z,16.27
2022-09-02T00:41:52.774Z,16.10
2022-09-02T00:44:22.393Z,17.73
2022-09-02T00:46:50.488Z,18.20
2022-09-02T00:49:24.332Z,17.50
2022-09-02T00:51:54.449Z,16.23
2022-09-02T00:54:25.511Z,17.23
2022-09-02T00:56:55.740Z,15.63
2022-09-02T00:59:25.530Z,20.33
2022-09-02T01:01:53.761Z,20.03
2022-09-02T01:04:24.568Z,17.47
2022-09-02T01:06:54.114Z,17.13
2022-09-02T01:09:23.693Z,19.03
2022-09-02T01:11:55.121Z,19.90
2022-09-02T01:14:24.552Z,19.67
2022-09-02T01:17:06.962Z,18.70
2022-09-02T01:19:36.526Z,19.70
2022-09-02T01:22:07.223Z,19.33
2022-09-02T01:24:35.546Z,18.10
2022-09-02T01:27:03.549Z,18.37
2022-09-02T01:29:31.802Z,18.60
2022-09-02T01:32:00.300Z,17.70
2022-09-02T01:34:29.255Z,15.33
2022-09-02T01:36:57.074Z,15.83
2022-09-02T01:39:26.381Z,15.00
2022-09-02T01:41:54.425Z,15.37
2022-09-02T01:44:22.292Z,15.33
2022-09-02T01:46:50.250Z,14.87
2022-09-02T01:49:18.263Z,14.67
2022-09-02T01:51:46.197Z,15.57
2022-09-02T01:54:14.342Z,16.87
2022-09-02T01:56:45.366Z,13.73
2022-09-02T01:59:18.055Z,13.93
2022-09-02T02:01:49.171Z,14.17
2022-09-02T02:04:17.480Z,13.13
2022-09-02T02:06:46.146Z,14.50
2022-09-02T02:09:17.693Z,12.47
2022-09-02T02:11:47.649Z,11.40
2022-09-02T02:14:15.636Z,11.83
2022-09-02T02:16:43.960Z,8.50
2022-09-02T02:19:12.245Z,9.63
2022-09-02T02:21:40.264Z,9.10
2022-09-02T02:24:09.187Z,8.73
2022-09-02T02:26:37.738Z,7.53
2022-09-02T02:29:07.245Z,8.73
2022-09-02T02:31:36.393Z,9.23
2022-09-02T02:34:04.319Z,7.90
2022-09-02T02:36:33.922Z,6.20
2022-09-02T02:39:02.080Z,6.67
2022-09-02T02:41:31.208Z,5.90
2022-09-02T02:43:59.227Z,6.53
2022-09-02T02:46:31.297Z,6.53
2022-09-02T02:49:00.377Z,7.13
2022-09-02T02:51:28.540Z,9.07
2022-09-02T02:53:58.899Z,7.47
2022-09-02T02:56:26.969Z,6.87
2022-09-02T02:58:55.925Z,7.70
2022-09-02T03:01:24.268Z,7.53
2022-09-02T03:03:55.859Z,7.37
2022-09-02T03:06:26.585Z,7.20
2022-09-02T03:08:55.270Z,6.80
2022-09-02T03:11:23.883Z,7.53
2022-09-02T03:13:51.692Z,8.00
2022-09-02T03:16:20.146Z,7.63
2022-09-02T03:18:48.802Z,7.50
2022-09-02T03:21:18.694Z,8.10
2022-09-02T03:23:47.101Z,7.57
2022-09-02T03:26:18.881Z,11.83
2022-09-02T03:28:48.827Z,8.37
2022-09-02T03:31:18.447Z,7.90
2022-09-02T03:33:46.542Z,8.03
2022-09-02T03:36:23.586Z,8.33
2022-09-02T03:38:51.825Z,8.60
2022-09-02T03:41:20.046Z,8.53
2022-09-02T03:43:47.890Z,7.43
2022-09-02T03:46:16.287Z,8.60
2022-09-02T03:48:44.721Z,8.33
2022-09-02T03:51:13.001Z,8.60
2022-09-02T03:53:42.751Z,9.23
2022-09-02T03:56:13.128Z,8.27
2022-09-02T03:58:41.464Z,9.43
2022-09-02T04:01:10.231Z,10.00
2022-09-02T04:03:38.098Z,9.70
2022-09-02T04:06:06.545Z,9.87
2022-09-02T04:08:34.519Z,9.30
2022-09-02T04:11:07.530Z,9.80
2022-09-02T04:13:35.677Z,10.07
2022-09-02T04:16:08.233Z,9.10
2022-09-02T04:18:38.921Z,11.40
2022-09-02T04:21:07.343Z,11.20
2022-09-02T04:23:35.648Z,10.03
2022-09-02T04:26:05.317Z,10.47
2022-09-02T04:28:35.277Z,11.57
2022-09-02T04:31:04.879Z,10.43
2022-09-02T04:33:33.088Z,11.03
2022-09-02T04:36:00.903Z,11.00
2022-09-02T04:38:32.923Z,12.73
2022-09-02T04:41:01.413Z,10.20
2022-09-02T04:43:29.125Z,10.83
2022-09-02T04:45:58.381Z,10.67
2022-09-02T04:48:26.088Z,9.83
2022-09-02T04:50:53.921Z,11.93
2022-09-02T04:53:21.973Z,11.13
2022-09-02T04:55:49.788Z,11.50
2022-09-02T04:58:17.709Z,9.83
2022-09-02T05:00:45.753Z,11.13
2022-09-02T05:03:15.346Z,10.93
2022-09-02T05:05:43.059Z,10.70
2022-09-02T05:08:13.316Z,12.43
2022-09-02T05:10:41.577Z,11.40
2022-09-02T05:13:09.359Z,12.17
2022-09-02T05:15:40.394Z,12.43
2022-09-02T05:18:08.242Z,12.47
2022-09-02T05:20:39.727Z,12.00
2022-09-02T05:23:08.967Z,11.90
2022-09-02T05:25:37.608Z,10.83
2022-09-02T05:28:05.677Z,12.70
2022-09-02T05:30:33.580Z,11.53
2022-09-02T05:33:01.274Z,11.83
2022-09-02T05:35:29.531Z,14.17
2022-09-02T05:38:00.905Z,12.73
2022-09-02T05:40:29.030Z,12.67
2022-09-02T05:42:56.891Z,13.73
2022-09-02T05:45:24.708Z,12.93
2022-09-02T05:47:52.402Z,11.27
2022-09-02T05:50:22.157Z,13.20
2022-09-02T05:52:51.535Z,13.90
2022-09-02T05:55:20.841Z,14.60
2022-09-02T05:57:48.565Z,19.03
2022-09-02T06:00:17.860Z,11.33
2022-09-02T06:02:46.049Z,11.10
2022-09-02T06:05:13.883Z,12.47
2022-09-02T06:07:41.672Z,10.57
2022-09-02T06:10:09.710Z,10.27
2022-09-02T06:12:42.514Z,14.10
2022-09-02T06:15:12.462Z,13.27
2022-09-02T06:17:40.237Z,10.60
2022-09-02T06:20:08.348Z,15.97
2022-09-02T06:22:37.649Z,11.53
2022-09-02T06:25:05.719Z,11.33
2022-09-02T06:27:33.618Z,10.57
2022-09-02T06:30:03.249Z,11.83
2022-09-02T06:32:31.327Z,11.13
2022-09-02T06:34:59.420Z,12.17
2022-09-02T06:37:27.320Z,13.70
2022-09-02T06:39:55.913Z,13.27
2022-09-02T06:42:25.833Z,12.77
2022-09-02T06:44:53.611Z,13.80
2022-09-02T06:47:23.053Z,13.60
2022-09-02T06:49:50.989Z,12.93
2022-09-02T06:52:19.055Z,12.07
2022-09-02T06:54:47.137Z,13.83
2022-09-02T06:57:15.123Z,13.27
2022-09-02T06:59:43.068Z,12.77
2022-09-02T07:02:10.997Z,13.60
2022-09-02T07:05:10.018Z,12.33
2022-09-02T07:07:38.654Z,17.37
2022-09-02T07:10:07.414Z,13.63
2022-09-02T07:12:36.190Z,12.63
2022-09-02T07:15:04.414Z,13.00
2022-09-02T07:17:32.731Z,13.57
2022-09-02T07:20:01.882Z,14.47
2022-09-02T07:22:29.926Z,13.60
2022-09-02T07:24:58.598Z,13.47
2022-09-02T07:27:27.401Z,13.77
2022-09-02T07:29:56.402Z,14.60
2022-09-02T07:32:24.267Z,15.57
2022-09-02T07:34:52.125Z,15.67
2022-09-02T07:37:21.678Z,14.13
2022-09-02T07:39:52.211Z,14.93
2022-09-02T07:42:20.586Z,14.23
2022-09-02T07:44:48.369Z,14.00
2022-09-02T07:47:19.619Z,14.13
2022-09-02T07:52:38.085Z,10.27
2022-09-02T07:55:10.264Z,10.40
2022-09-02T07:57:41.187Z,8.13
2022-09-02T08:00:09.416Z,9.10
2022-09-02T08:02:38.649Z,7.73
2022-09-02T08:05:07.185Z,9.67
2022-09-02T08:07:34.946Z,8.00
2022-09-02T08:10:04.492Z,8.63
2022-09-02T08:12:32.776Z,7.47
2022-09-02T08:15:00.642Z,8.37
2022-09-02T08:17:28.318Z,7.40
2022-09-02T08:19:56.935Z,7.83
2022-09-02T08:22:25.611Z,7.53
2022-09-02T08:24:53.377Z,9.10
2022-09-02T08:27:22.534Z,7.60
2022-09-02T08:29:50.318Z,6.40
2022-09-02T08:32:18.189Z,7.73
2022-09-02T08:34:46.141Z,10.03
2022-09-02T08:37:14.268Z,7.17
2022-09-02T08:39:42.045Z,6.80
2022-09-02T08:42:13.096Z,6.27
2022-09-02T08:44:42.929Z,6.70
2022-09-02T08:47:12.781Z,6.60
2022-09-02T08:49:43.415Z,10.90
2022-09-02T08:52:17.737Z,9.60
2022-09-02T08:54:47.575Z,9.40
2022-09-02T08:57:15.373Z,8.80
2022-09-02T08:59:45.376Z,9.20
2022-09-02T09:02:20.384Z,10.10
2022-09-02T09:04:59.045Z,8.60
2022-09-02T09:07:31.283Z,8.10
2022-09-02T09:10:04.168Z,9.67
2022-09-02T09:12:42.676Z,9.23
2022-09-02T09:15:14.431Z,10.87
2022-09-02T09:17:44.837Z,10.57
2022-09-02T09:20:17.147Z,9.35
2022-09-02T09:22:45.364Z,16.15
2022-09-02T09:25:14.177Z,9.82
2022-09-02T09:27:42.160Z,10.60
2022-09-02T09:30:15.447Z,13.35
2022-09-02T09:32:46.315Z,10.73
2022-09-02T09:35:14.826Z,10.43
2022-09-02T09:37:43.156Z,11.07
2022-09-02T09:40:25.018Z,14.23
2022-09-02T09:42:57.011Z,12.60
2022-09-02T09:45:32.545Z,10.20
2022-09-02T09:48:16.523Z,9.95
2022-09-02T09:50:44.472Z,9.75
2022-09-02T09:53:15.861Z,11.85
2022-09-02T09:55:53.015Z,12.20
2022-09-02T09:58:21.594Z,9.85
2022-09-02T10:00:52.835Z,11.73
2022-09-02T10:03:23.825Z,10.23
2022-09-02T10:05:55.190Z,9.93
2022-09-02T10:08:23.773Z,10.10
2022-09-02T10:10:57.137Z,10.00
2022-09-02T10:13:27.272Z,10.57
2022-09-02T10:16:16.272Z,10.73
2022-09-02T10:18:49.196Z,12.43
2022-09-02T10:21:24.587Z,10.67
2022-09-02T10:23:56.698Z,9.63
2022-09-02T10:26:33.185Z,12.20
2022-09-02T10:29:09.537Z,9.77
2022-09-02T10:31:41.588Z,10.63
2022-09-02T10:34:14.603Z,12.00
2022-09-02T10:36:58.928Z,9.52
2022-09-02T10:39:31.646Z,10.57
2022-09-02T10:42:04.408Z,13.17
2022-09-02T10:44:35.461Z,13.82
2022-09-02T10:47:04.411Z,11.52
2022-09-02T10:49:41.807Z,9.85
2022-09-02T10:52:14.750Z,11.27
2022-09-02T10:54:48.658Z,10.82
2022-09-02T10:57:18.027Z,11.40
2022-09-02T10:59:53.221Z,12.35
2022-09-02T11:02:24.362Z,11.23
2022-09-02T11:04:56.621Z,10.75
2022-09-02T11:07:26.438Z,11.88
2022-09-02T11:09:56.328Z,14.82
2022-09-02T11:12:27.738Z,15.32
2022-09-02T11:15:00.339Z,12.25
2022-09-02T11:17:31.662Z,15.43
2022-09-02T11:20:04.729Z,11.68
2022-09-02T11:22:40.068Z,11.20
2022-09-02T11:25:09.696Z,11.45
2022-09-02T11:27:43.055Z,11.75
2022-09-02T11:30:14.130Z,11.15
2022-09-02T11:32:44.535Z,11.90
2022-09-02T11:35:18.426Z,12.02
2022-09-02T11:37:48.733Z,12.13
2022-09-02T11:40:36.169Z,13.25
2022-09-02T11:43:09.334Z,12.70
2022-09-02T11:45:45.089Z,12.57
2022-09-02T11:48:23.237Z,13.65
2022-09-02T11:51:00.162Z,12.52
2022-09-02T11:53:30.655Z,13.02
2022-09-02T11:56:08.095Z,12.48
2022-09-02T11:58:39.264Z,12.98
2022-09-02T12:01:19.090Z,13.90
2022-09-02T12:07:14.466Z,14.30
2022-09-02T12:09:48.076Z,14.73
2022-09-02T12:12:31.509Z,15.15
2022-09-02T12:15:05.464Z,14.50
2022-09-02T12:17:38.095Z,13.57
2022-09-02T12:20:08.184Z,14.50
2022-09-02T12:22:40.013Z,15.65
2022-09-02T12:25:27.371Z,15.27
2022-09-02T12:28:10.270Z,14.60
2022-09-02T12:30:59.115Z,15.05
2022-09-02T12:33:30.745Z,18.15
2022-09-02T12:35:59.835Z,16.10
2022-09-02T12:38:43.002Z,14.95
2022-09-02T12:41:31.554Z,16.15
2022-09-02T12:44:10.016Z,16.17
2022-09-02T12:46:47.090Z,16.90
2022-09-02T12:49:30.611Z,17.08
2022-09-02T12:52:01.787Z,16.00
2022-09-02T12:54:36.075Z,15.75
2022-09-02T12:57:07.697Z,16.45
2022-09-02T12:59:38.779Z,15.63
2022-09-02T13:02:19.018Z,15.90
2022-09-02T13:04:50.363Z,15.95
2022-09-02T13:07:47.947Z,15.60
2022-09-02T13:10:29.720Z,15.98
2022-09-02T13:13:05.552Z,15.05
2022-09-02T13:15:52.942Z,15.60
2022-09-02T13:18:41.078Z,16.88
2022-09-02T13:21:22.348Z,15.32
2022-09-02T13:24:11.823Z,14.93
2022-09-02T13:26:53.135Z,16.73
2022-09-02T13:29:35.805Z,15.60
2022-09-02T13:32:13.614Z,20.55
2022-09-02T13:34:43.198Z,15.73
2022-09-02T13:37:25.808Z,26.13
2022-09-02T13:39:53.668Z,20.07
2022-09-02T13:42:23.531Z,19.57
2022-09-02T13:44:52.914Z,19.93
2022-09-02T13:47:22.415Z,20.97
2022-09-02T13:49:51.208Z,16.23
2022-09-02T13:52:23.999Z,18.80
2022-09-02T13:55:02.455Z,23.20
2022-09-02T13:57:30.754Z,20.90
2022-09-02T13:59:58.999Z,26.87
2022-09-02T14:02:32.138Z,29.20
2022-09-02T14:05:01.451Z,21.93
2022-09-02T14:07:32.938Z,20.53
2022-09-02T14:10:02.237Z,33.77
2022-09-02T14:12:31.263Z,29.67
2022-09-02T14:14:59.623Z,38.60
2022-09-02T14:17:28.746Z,32.50
2022-09-02T14:20:11.094Z,19.53
2022-09-02T14:22:40.301Z,19.47
2022-09-02T14:25:13.248Z,25.70
2022-09-02T14:27:42.074Z,29.13
2022-09-02T14:30:11.079Z,25.87
2022-09-02T14:32:40.353Z,29.80
2022-09-02T14:35:13.148Z,41.73
2022-09-02T14:37:51.661Z,25.40
2022-09-02T14:40:19.836Z,23.37
2022-09-02T14:42:52.625Z,23.60
2022-09-02T14:45:27.014Z,22.43
2022-09-02T14:47:57.929Z,20.03
2022-09-02T14:50:28.668Z,17.77
2022-09-02T14:52:59.266Z,18.17
2022-09-02T14:55:46.277Z,17.97
2022-09-02T14:58:14.227Z,19.90
2022-09-02T15:00:42.345Z,17.67
2022-09-02T15:03:15.113Z,16.73
2022-09-02T15:05:43.174Z,19.37
2022-09-02T15:08:12.669Z,19.73
2022-09-02T15:10:41.087Z,22.77
2022-09-02T15:13:11.429Z,21.37
2022-09-02T15:15:39.697Z,21.63
2022-09-02T15:18:18.718Z,19.53
2022-09-02T15:20:48.318Z,22.53
2022-09-02T15:23:16.265Z,20.10
2022-09-02T15:25:44.079Z,20.20
2022-09-02T15:28:13.801Z,20.57
2022-09-02T15:30:42.027Z,16.20
2022-09-02T15:33:17.330Z,14.80
2022-09-02T15:35:46.886Z,12.13
2022-09-02T15:38:16.077Z,12.00
2022-09-02T15:40:45.307Z,13.03
2022-09-02T15:43:13.295Z,11.27
2022-09-02T15:45:45.962Z,12.57
2022-09-02T15:48:13.975Z,12.57
2022-09-02T15:50:41.687Z,13.57
2022-09-02T15:53:10.043Z,14.60
2022-09-02T15:55:39.312Z,13.73
2022-09-02T15:58:07.403Z,15.23
2022-09-02T16:00:36.878Z,14.93
2022-09-02T16:03:05.428Z,15.00
2022-09-02T16:05:33.265Z,15.33
2022-09-02T16:08:01.824Z,16.73
2022-09-02T16:10:30.149Z,15.37
2022-09-02T16:13:00.821Z,16.43
2022-09-02T16:15:30.146Z,30.17
2022-09-02T16:18:02.123Z,25.13
2022-09-02T16:20:29.994Z,26.50
2022-09-02T16:22:58.254Z,25.00
2022-09-02T16:25:26.427Z,24.27
2022-09-02T16:27:55.867Z,18.50
2022-09-02T16:30:26.477Z,18.30
2022-09-02T16:32:54.381Z,20.67
2022-09-02T16:35:22.241Z,21.50
2022-09-02T16:37:50.541Z,19.97
2022-09-02T16:40:21.695Z,19.00
2022-09-02T16:42:52.272Z,21.77
2022-09-02T16:45:20.119Z,18.40
2022-09-02T16:47:49.262Z,19.27
2022-09-02T16:50:17.207Z,16.20
2022-09-02T16:52:45.018Z,15.83
2022-09-02T16:55:17.896Z,13.87
2022-09-02T16:57:46.064Z,14.17
2022-09-02T17:00:14.734Z,12.93
2022-09-02T17:02:42.684Z,10.10
2022-09-02T17:05:14.485Z,10.50
2022-09-02T17:07:42.253Z,11.47
2022-09-02T17:10:10.547Z,9.27
2022-09-02T17:12:42.703Z,10.97
2022-09-02T17:15:11.556Z,9.40
2022-09-02T17:17:40.190Z,10.20
2022-09-02T17:20:10.461Z,9.00
2022-09-02T17:22:41.531Z,7.70
2022-09-02T17:25:09.702Z,8.60
2022-09-02T17:27:37.695Z,7.53
2022-09-02T17:30:06.018Z,9.07
2022-09-02T17:32:33.907Z,8.47
2022-09-02T17:35:03.021Z,7.77
2022-09-02T17:37:31.047Z,9.53
2022-09-02T17:40:00.533Z,10.40
2022-09-02T17:42:27.276Z,10.03
2022-09-02T17:44:55.412Z,9.10
2022-09-02T17:47:23.493Z,12.50
2022-09-02T17:49:51.647Z,9.47
2022-09-02T17:52:20.359Z,10.27
2022-09-02T17:54:49.823Z,9.70
2022-09-02T17:57:42.411Z,8.80
2022-09-02T18:00:11.842Z,9.23
2022-09-02T18:02:44.722Z,10.33
2022-09-02T18:05:17.124Z,9.13
2022-09-02T18:07:49.858Z,10.83
2022-09-02T18:10:19.079Z,9.57
2022-09-02T18:12:48.391Z,9.87
2022-09-02T18:15:18.084Z,10.37
2022-09-02T18:17:47.571Z,9.27
2022-09-02T18:20:18.854Z,9.63
2022-09-02T18:23:05.164Z,9.10
2022-09-02T18:25:45.988Z,8.77
2022-09-02T18:28:31.940Z,10.80
2022-09-02T18:31:06.444Z,10.33
2022-09-02T18:33:49.077Z,10.80
2022-09-02T18:36:22.054Z,10.40
2022-09-02T18:38:53.923Z,8.40
2022-09-02T18:41:27.132Z,8.97
2022-09-02T18:44:00.917Z,9.93
2022-09-02T18:46:34.804Z,9.63
2022-09-02T18:49:03.879Z,10.07
2022-09-02T18:51:37.870Z,12.23
2022-09-02T18:54:09.328Z,8.97
2022-09-02T18:56:38.890Z,11.13
2022-09-02T18:59:10.927Z,9.07
2022-09-02T19:01:43.895Z,9.80
2022-09-02T19:04:12.063Z,11.67
2022-09-02T19:06:42.879Z,9.20
2022-09-02T19:09:12.342Z,10.50
2022-09-02T19:11:40.659Z,11.47
2022-09-02T19:14:24.408Z,8.73
2022-09-02T19:16:53.967Z,9.13
2022-09-02T19:19:21.864Z,9.27
2022-09-02T19:21:51.893Z,8.80
2022-09-02T19:24:25.544Z,8.57
2022-09-02T19:26:54.898Z,7.90
2022-09-02T19:29:25.405Z,8.87
2022-09-02T19:31:55.156Z,9.03
2022-09-02T19:34:23.825Z,8.23
2022-09-02T19:36:54.158Z,10.17
2022-09-02T19:39:23.597Z,10.07
2022-09-02T19:41:54.122Z,11.43
2022-09-02T19:44:22.091Z,9.70
2022-09-02T19:48:02.767Z,8.37
2022-09-02T19:49:41.006Z,8.63
2022-09-02T19:52:09.545Z,9.07
2022-09-02T19:54:37.708Z,12.97
2022-09-02T19:57:07.138Z,11.00
2022-09-02T19:59:36.064Z,7.80
2022-09-02T20:02:04.783Z,8.67
2022-09-02T20:04:33.411Z,8.17
2022-09-02T20:07:02.739Z,8.63
2022-09-02T20:09:30.864Z,9.03
2022-09-02T20:11:59.765Z,9.27
2022-09-02T20:14:29.103Z,9.33
2022-09-02T20:16:59.433Z,8.60
2022-09-02T20:19:27.084Z,8.87
2022-09-02T20:21:54.920Z,7.30
2022-09-02T20:24:25.350Z,8.20
2022-09-02T20:26:59.180Z,8.63
2022-09-02T20:29:33.662Z,7.30
2022-09-02T20:32:06.019Z,8.40
2022-09-02T20:34:38.632Z,7.60
2022-09-02T20:37:10.845Z,8.37
2022-09-02T20:39:50.142Z,6.80
2022-09-02T20:42:29.483Z,8.47
2022-09-02T20:45:00.408Z,9.40
2022-09-02T20:47:36.745Z,8.33
2022-09-02T20:50:14.586Z,8.23
2022-09-02T20:52:46.111Z,10.30
2022-09-02T20:55:19.190Z,7.10
2022-09-02T20:58:13.519Z,7.53
2022-09-02T21:00:44.608Z,7.60
2022-09-02T21:03:14.010Z,6.33
2022-09-02T21:05:43.470Z,7.17
2022-09-02T21:08:19.460Z,6.77
2022-09-02T21:10:52.042Z,8.03
2022-09-02T21:13:23.182Z,8.03
2022-09-02T21:15:52.880Z,9.03
2022-09-02T21:18:27.491Z,6.77
2022-09-02T21:20:56.990Z,6.73
2022-09-02T21:23:27.307Z,6.07
2022-09-02T21:25:57.470Z,6.13
2022-09-02T21:28:29.703Z,6.20
2022-09-02T21:31:01.725Z,6.03
2022-09-02T21:33:33.083Z,6.20
2022-09-02T21:36:01.089Z,6.83
2022-09-02T21:38:32.918Z,6.17
2022-09-02T21:41:06.507Z,6.63
2022-09-02T21:43:45.648Z,5.43
2022-09-02T21:46:20.548Z,4.70
2022-09-02T21:48:54.060Z,4.80
2022-09-02T21:51:25.716Z,5.27
2022-09-02T21:53:56.405Z,6.17
2022-09-02T21:56:29.285Z,6.93
2022-09-02T21:59:15.555Z,4.80
2022-09-02T22:01:46.336Z,5.87
2022-09-02T22:04:19.528Z,7.60
2022-09-02T22:06:48.818Z,4.80
2022-09-02T22:09:18.364Z,4.47
2022-09-02T22:11:49.536Z,4.77
2022-09-02T22:14:19.429Z,5.63
2022-09-02T22:16:53.883Z,4.80
2022-09-02T22:19:24.004Z,5.27
2022-09-02T22:21:54.049Z,4.87
2022-09-02T22:24:28.309Z,7.80
2022-09-02T22:27:02.884Z,4.97
2022-09-02T22:29:36.610Z,5.03
2022-09-02T22:32:07.866Z,6.90
2022-09-02T22:34:39.183Z,7.20
2022-09-02T22:37:09.631Z,5.33
2022-09-02T22:39:38.763Z,7.90
2022-09-02T22:42:11.088Z,5.17
2022-09-02T22:44:58.758Z,5.13
2022-09-02T22:47:46.214Z,6.23
2022-09-02T22:50:34.431Z,6.30
2022-09-02T22:53:02.103Z,4.20
2022-09-02T22:55:46.644Z,5.00
2022-09-02T22:58:26.141Z,5.70
2022-09-02T23:00:57.792Z,5.07
2022-09-02T23:03:30.147Z,5.30
2022-09-02T23:06:01.163Z,4.77
2022-09-02T23:08:28.839Z,5.30
2022-09-02T23:10:58.576Z,4.40
2022-09-02T23:13:43.641Z,4.97
2022-09-02T23:16:16.553Z,5.20
2022-09-02T23:18:52.215Z,5.07
2022-09-02T23:21:25.963Z,4.80
2022-09-02T23:23:57.786Z,6.63
2022-09-02T23:26:30.485Z,5.30
2022-09-02T23:29:05.921Z,6.00
2022-09-02T23:31:40.514Z,6.60
2022-09-02T23:34:15.684Z,6.67
2022-09-02T23:36:47.460Z,7.67
2022-09-02T23:39:24.128Z,5.67
2022-09-02T23:41:53.439Z,5.13
2022-09-02T23:44:23.013Z,4.80
2022-09-02T23:46:57.576Z,5.73
2022-09-02T23:49:29.788Z,7.83
2022-09-02T23:52:01.146Z,6.93
2022-09-02T23:54:37.229Z,5.13
2022-09-02T23:57:18.514Z,5.87
2022-09-02T23:59:59.521Z,8.07
